createdAt,value
2023-07-02T00:00:13.744Z,41.56
2023-07-02T00:02:41.049Z,41.20
2023-07-02T00:05:08.624Z,41.05
2023-07-02T00:07:37.958Z,41.34
2023-07-02T00:10:05.752Z,41.74
2023-07-02T00:12:33.162Z,41.79
2023-07-02T00:15:01.589Z,42.45
2023-07-02T00:17:29.015Z,42.27
2023-07-02T00:19:56.558Z,42.02
2023-07-02T00:22:24.017Z,41.64
2023-07-02T00:24:52.425Z,41.88
2023-07-02T00:27:20.206Z,42.19
2023-07-02T00:29:47.669Z,42.38
2023-07-02T00:32:15.221Z,42.59
2023-07-02T00:34:42.532Z,42.89
2023-07-02T00:37:09.956Z,42.97
2023-07-02T00:39:37.617Z,43.42
2023-07-02T00:42:05.892Z,43.58
2023-07-02T00:44:33.374Z,43.74
2023-07-02T00:47:01.060Z,44.00
2023-07-02T00:49:28.551Z,43.67
2023-07-02T00:51:56.268Z,43.44
2023-07-02T00:54:23.759Z,43.33
2023-07-02T00:56:51.629Z,43.49
2023-07-02T00:59:18.989Z,43.58
2023-07-02T01:01:51.071Z,43.15
2023-07-02T01:04:20.314Z,42.71
2023-07-02T01:06:47.725Z,42.89
2023-07-02T01:09:15.073Z,42.61
2023-07-02T01:11:51.824Z,43.42
2023-07-02T01:14:39.173Z,43.84
2023-07-02T01:17:06.979Z,44.00
2023-07-02T01:19:45.692Z,44.37
2023-07-02T01:22:13.065Z,44.96
2023-07-02T01:24:40.524Z,45.06
2023-07-02T01:27:08.028Z,45.38
2023-07-02T01:29:38.540Z,45.31
2023-07-02T01:32:07.105Z,45.66
2023-07-02T01:34:34.477Z,45.17
2023-07-02T01:37:02.724Z,45.45
2023-07-02T01:39:30.080Z,45.38
2023-07-02T01:42:11.158Z,44.78
2023-07-02T01:44:38.857Z,44.48
2023-07-02T01:47:06.563Z,44.86
2023-07-02T01:49:33.997Z,44.62
2023-07-02T01:52:01.366Z,44.67
2023-07-02T01:54:29.425Z,44.66
2023-07-02T01:56:57.129Z,44.07
2023-07-02T01:59:25.164Z,44.29
2023-07-02T02:01:52.777Z,43.80
2023-07-02T02:04:20.180Z,44.26
2023-07-02T02:06:47.598Z,44.60
2023-07-02T02:09:15.096Z,44.57
2023-07-02T02:11:44.548Z,45.01
2023-07-02T02:14:11.879Z,45.34
2023-07-02T02:16:39.322Z,44.87
2023-07-02T02:19:06.750Z,45.15
2023-07-02T02:21:34.122Z,44.47
2023-07-02T02:24:01.454Z,44.27
2023-07-02T02:26:28.884Z,44.32
2023-07-02T02:28:56.204Z,44.33
2023-07-02T02:31:23.885Z,44.52
2023-07-02T02:33:51.525Z,44.95
2023-07-02T02:36:18.955Z,44.57
2023-07-02T02:38:46.400Z,44.86
2023-07-02T02:41:13.992Z,44.82
2023-07-02T02:43:45.414Z,45.11
2023-07-02T02:46:23.686Z,46.45
2023-07-02T02:48:51.488Z,46.22
2023-07-02T02:51:18.922Z,46.24
2023-07-02T02:53:47.390Z,46.69
2023-07-02T02:56:15.064Z,47.21
2023-07-02T02:58:42.724Z,47.21
2023-07-02T03:01:11.855Z,45.99
2023-07-02T03:03:40.356Z,46.34
2023-07-02T03:06:07.832Z,46.53
2023-07-02T03:08:35.211Z,46.40
2023-07-02T03:11:02.710Z,46.68
2023-07-02T03:13:30.104Z,46.41
2023-07-02T03:15:57.427Z,46.21
2023-07-02T03:18:25.003Z,45.79
2023-07-02T03:20:52.345Z,45.61
2023-07-02T03:23:19.702Z,45.95
2023-07-02T03:25:46.994Z,46.01
2023-07-02T03:28:14.324Z,46.18
2023-07-02T03:30:41.838Z,46.41
2023-07-02T03:33:10.788Z,45.44
2023-07-02T03:35:38.181Z,45.66
2023-07-02T03:38:07.175Z,45.95
2023-07-02T03:40:34.522Z,45.76
2023-07-02T03:43:01.863Z,45.83
2023-07-02T03:45:29.420Z,45.84
2023-07-02T03:47:57.354Z,45.81
2023-07-02T03:51:24.437Z,52.63
2023-07-02T03:53:51.215Z,49.36
2023-07-02T03:56:17.951Z,48.00
2023-07-02T03:58:44.688Z,47.83
2023-07-02T04:01:11.368Z,47.50
2023-07-02T04:03:39.050Z,47.81
2023-07-02T04:06:08.838Z,47.77
2023-07-02T04:08:35.620Z,47.19
2023-07-02T04:11:02.805Z,47.73
2023-07-02T04:13:30.241Z,47.54
2023-07-02T04:15:57.742Z,47.36
2023-07-02T04:18:24.407Z,47.56
2023-07-02T04:20:51.373Z,47.46
2023-07-02T04:23:18.029Z,47.66
2023-07-02T04:26:10.662Z,46.99
2023-07-02T04:28:32.314Z,46.31
2023-07-02T04:30:58.859Z,46.02
2023-07-02T04:33:25.306Z,45.19
2023-07-02T04:35:51.825Z,44.89
2023-07-02T04:38:18.877Z,44.29
2023-07-02T04:40:46.109Z,43.57
2023-07-02T04:43:13.032Z,42.99
2023-07-02T04:45:39.871Z,42.52
2023-07-02T04:48:06.960Z,41.76
2023-07-02T04:50:36.743Z,41.63
2023-07-02T04:53:03.285Z,41.01
2023-07-02T04:55:31.853Z,40.76
2023-07-02T04:57:59.016Z,40.22
2023-07-02T05:00:25.779Z,39.21
2023-07-02T05:02:52.415Z,38.73
2023-07-02T05:05:19.039Z,38.62
2023-07-02T05:07:47.434Z,37.93
2023-07-02T05:10:14.432Z,37.38
2023-07-02T05:12:42.893Z,36.48
2023-07-02T05:15:10.049Z,35.90
2023-07-02T05:17:38.985Z,35.63
2023-07-02T05:20:06.361Z,35.59
2023-07-02T05:22:33.220Z,35.34
2023-07-02T05:24:59.830Z,34.81
2023-07-02T05:27:26.414Z,34.45
2023-07-02T05:29:53.348Z,34.18
2023-07-02T05:32:20.046Z,33.68
2023-07-02T05:34:46.673Z,33.63
2023-07-02T05:37:13.231Z,33.00
2023-07-02T05:39:39.664Z,32.46
2023-07-02T05:42:06.241Z,32.49
2023-07-02T05:44:32.966Z,32.28
2023-07-02T05:46:59.570Z,32.20
2023-07-02T05:49:26.787Z,31.96
2023-07-02T05:51:53.365Z,31.54
2023-07-02T05:54:19.887Z,31.16
2023-07-02T05:56:46.267Z,30.61
2023-07-02T05:59:16.268Z,30.63
2023-07-02T06:01:45.030Z,30.44
2023-07-02T06:04:12.782Z,29.56
2023-07-02T06:06:39.591Z,28.82
2023-07-02T06:09:06.267Z,28.67
2023-07-02T06:11:32.976Z,28.53
2023-07-02T06:13:59.496Z,28.94
2023-07-02T06:16:26.008Z,28.96
2023-07-02T06:18:53.135Z,29.13
2023-07-02T06:21:20.501Z,29.09
2023-07-02T06:23:47.486Z,28.99
2023-07-02T06:26:13.925Z,29.42
2023-07-02T06:28:42.215Z,29.42
2023-07-02T06:31:09.189Z,29.72
2023-07-02T06:33:39.366Z,29.52
2023-07-02T06:36:05.948Z,28.67
2023-07-02T06:38:33.064Z,28.37
2023-07-02T06:41:00.220Z,28.48
2023-07-02T06:43:26.758Z,27.66
2023-07-02T06:45:53.538Z,27.20
2023-07-02T06:48:22.437Z,27.06
2023-07-02T06:50:50.058Z,27.18
2023-07-02T06:53:17.205Z,27.51
2023-07-02T06:55:44.204Z,27.75
2023-07-02T06:58:10.942Z,28.53
2023-07-02T07:00:37.593Z,28.33
2023-07-02T07:03:04.372Z,27.81
2023-07-02T07:05:31.740Z,27.59
2023-07-02T07:08:00.072Z,27.63
2023-07-02T07:10:29.156Z,27.29
2023-07-02T07:12:55.840Z,27.04
2023-07-02T07:15:22.399Z,26.82
2023-07-02T07:17:49.331Z,26.75
2023-07-02T07:20:16.191Z,27.10
2023-07-02T07:22:42.968Z,27.23
2023-07-02T07:25:09.647Z,26.97
2023-07-02T07:27:36.791Z,26.62
2023-07-02T07:30:03.654Z,26.16
2023-07-02T07:32:31.337Z,25.75
2023-07-02T07:34:57.888Z,25.16
2023-07-02T07:37:27.157Z,24.57
2023-07-02T07:39:54.530Z,24.17
2023-07-02T07:42:21.242Z,24.22
2023-07-02T07:44:47.943Z,24.04
2023-07-02T07:47:14.513Z,23.83
2023-07-02T07:49:41.249Z,24.04
2023-07-02T07:52:08.512Z,23.78
2023-07-02T07:54:35.910Z,23.25
2023-07-02T07:57:04.350Z,23.07
2023-07-02T07:59:32.402Z,22.89
2023-07-02T08:01:59.216Z,23.08
2023-07-02T08:04:25.866Z,23.03
2023-07-02T08:06:52.395Z,22.76
2023-07-02T08:09:19.372Z,22.54
2023-07-02T08:11:46.542Z,22.56
2023-07-02T08:14:13.291Z,22.48
2023-07-02T08:16:40.049Z,22.22
2023-07-02T08:19:06.689Z,22.04
2023-07-02T08:21:33.920Z,22.29
2023-07-02T08:24:00.597Z,22.03
2023-07-02T08:26:27.374Z,21.73
2023-07-02T08:28:54.048Z,21.55
2023-07-02T08:31:20.763Z,21.10
2023-07-02T08:33:47.620Z,20.95
2023-07-02T08:36:14.272Z,21.37
2023-07-02T08:38:42.590Z,21.60
2023-07-02T08:41:09.179Z,21.70
2023-07-02T08:43:36.196Z,21.60
2023-07-02T08:46:02.842Z,21.56
2023-07-02T08:48:29.965Z,21.17
2023-07-02T08:50:56.837Z,21.30
2023-07-02T08:53:33.737Z,21.91
2023-07-02T08:56:01.323Z,22.26
2023-07-02T08:58:28.007Z,22.89
2023-07-02T09:01:13.958Z,22.86
2023-07-02T09:03:41.784Z,23.36
2023-07-02T09:06:09.831Z,23.47
2023-07-02T09:08:36.865Z,24.30
2023-07-02T09:11:09.498Z,24.06
2023-07-02T09:13:46.027Z,23.90
2023-07-02T09:16:21.699Z,23.88
2023-07-02T09:18:58.001Z,23.55
2023-07-02T09:21:44.028Z,22.99
2023-07-02T09:24:26.164Z,22.33
2023-07-02T09:26:56.772Z,22.09
2023-07-02T09:29:33.358Z,21.89
2023-07-02T09:32:09.986Z,21.65
2023-07-02T09:34:41.010Z,21.59
2023-07-02T09:37:07.777Z,21.72
2023-07-02T09:39:35.866Z,21.92
2023-07-02T09:42:06.530Z,21.46
2023-07-02T09:44:34.332Z,20.83
2023-07-02T09:47:07.960Z,20.61
2023-07-02T09:49:36.396Z,20.89
2023-07-02T09:52:08.879Z,20.97
2023-07-02T09:54:36.231Z,21.31
2023-07-02T09:57:03.148Z,20.76
2023-07-02T09:59:29.909Z,20.46
2023-07-02T10:01:57.021Z,20.74
2023-07-02T10:04:24.481Z,20.95
2023-07-02T10:06:52.976Z,21.02
2023-07-02T10:09:20.848Z,20.77
2023-07-02T10:11:47.562Z,19.96
2023-07-02T10:14:14.489Z,19.74
2023-07-02T10:16:51.153Z,19.61
2023-07-02T10:19:18.180Z,19.81
2023-07-02T10:21:50.505Z,20.10
2023-07-02T10:24:20.421Z,19.92
2023-07-02T10:26:56.754Z,20.13
2023-07-02T10:29:25.006Z,21.20
2023-07-02T10:31:54.945Z,21.83
2023-07-02T10:34:48.283Z,21.87
2023-07-02T10:37:14.681Z,21.53
2023-07-02T10:39:41.532Z,20.89
2023-07-02T10:42:08.989Z,20.75
2023-07-02T10:44:46.297Z,21.16
2023-07-02T10:47:13.075Z,21.79
2023-07-02T10:49:39.644Z,22.03
2023-07-02T10:52:07.896Z,21.56
2023-07-02T10:54:45.193Z,21.63
2023-07-02T10:57:14.024Z,21.61
2023-07-02T10:59:40.553Z,21.57
2023-07-02T11:02:07.315Z,22.11
2023-07-02T11:04:34.438Z,21.93
2023-07-02T11:07:01.673Z,21.66
2023-07-02T11:09:28.389Z,20.89
2023-07-02T11:12:02.397Z,20.61
2023-07-02T11:14:32.942Z,20.03
2023-07-02T11:17:04.035Z,20.15
2023-07-02T11:19:30.624Z,19.90
2023-07-02T11:22:04.764Z,20.43
2023-07-02T11:24:35.990Z,21.03
2023-07-02T11:27:08.561Z,21.70
2023-07-02T11:29:37.063Z,21.92
2023-07-02T11:32:11.020Z,21.67
2023-07-02T11:34:38.206Z,20.96
2023-07-02T11:37:05.113Z,21.05
2023-07-02T11:39:32.650Z,21.14
2023-07-02T11:41:59.192Z,20.77
2023-07-02T11:44:25.718Z,20.53
2023-07-02T11:46:52.546Z,19.87
2023-07-02T11:49:19.760Z,19.56
2023-07-02T11:51:50.218Z,19.53
2023-07-02T11:54:19.011Z,19.85
2023-07-02T11:56:45.970Z,19.90
2023-07-02T11:59:12.440Z,19.72
2023-07-02T12:01:39.079Z,19.31
2023-07-02T12:04:07.885Z,19.16
2023-07-02T12:06:36.820Z,19.74
2023-07-02T12:09:03.897Z,20.25
2023-07-02T12:11:31.072Z,20.88
2023-07-02T12:13:57.773Z,20.88
2023-07-02T12:16:24.705Z,20.51
2023-07-02T12:18:51.477Z,20.43
2023-07-02T12:21:18.998Z,20.03
2023-07-02T12:23:45.855Z,19.88
2023-07-02T12:26:12.497Z,19.97
2023-07-02T12:28:39.035Z,20.25
2023-07-02T12:31:05.698Z,20.53
2023-07-02T12:33:32.591Z,20.85
2023-07-02T12:35:59.942Z,20.96
2023-07-02T12:38:26.473Z,21.72
2023-07-02T12:40:52.934Z,21.57
2023-07-02T12:43:20.443Z,21.81
2023-07-02T12:45:47.679Z,22.08
2023-07-02T12:48:14.672Z,22.32
2023-07-02T12:50:41.149Z,22.34
2023-07-02T12:53:07.903Z,22.56
2023-07-02T12:55:34.295Z,22.73
2023-07-02T12:58:01.352Z,22.85
2023-07-02T13:00:28.534Z,23.02
2023-07-02T13:03:03.722Z,23.59
2023-07-02T13:05:32.173Z,23.90
2023-07-02T13:07:58.835Z,24.19
2023-07-02T13:10:25.289Z,24.71
2023-07-02T13:12:52.421Z,24.75
2023-07-02T13:15:20.414Z,25.14
2023-07-02T13:17:47.292Z,24.76
2023-07-02T13:20:13.907Z,24.54
2023-07-02T13:22:40.620Z,25.35
2023-07-02T13:25:07.628Z,26.66
2023-07-02T13:27:34.271Z,27.52
2023-07-02T13:30:01.054Z,27.75
2023-07-02T13:32:30.772Z,27.43
2023-07-02T13:34:58.594Z,27.38
2023-07-02T13:37:25.423Z,26.86
2023-07-02T13:39:52.086Z,26.70
2023-07-02T13:42:18.772Z,26.59
2023-07-02T13:44:45.630Z,26.24
2023-07-02T13:47:12.185Z,26.20
2023-07-02T13:49:38.843Z,25.85
2023-07-02T13:52:05.859Z,25.83
2023-07-02T13:54:34.261Z,25.96
2023-07-02T13:57:02.045Z,25.57
2023-07-02T13:59:29.130Z,25.44
2023-07-02T14:01:55.699Z,25.45
2023-07-02T14:04:22.124Z,25.11
2023-07-02T14:06:48.644Z,25.26
2023-07-02T14:09:15.442Z,24.98
2023-07-02T14:11:43.632Z,25.57
2023-07-02T14:14:10.145Z,26.35
2023-07-02T14:16:37.066Z,26.29
2023-07-02T14:19:03.786Z,26.57
2023-07-02T14:21:30.935Z,26.24
2023-07-02T14:23:58.531Z,26.04
2023-07-02T14:26:25.266Z,26.31
2023-07-02T14:28:53.165Z,26.37
2023-07-02T14:31:19.860Z,26.49
2023-07-02T14:33:46.349Z,26.17
2023-07-02T14:36:12.902Z,26.15
2023-07-02T14:38:39.394Z,26.35
2023-07-02T14:41:06.453Z,26.60
2023-07-02T14:43:33.383Z,28.79
2023-07-02T14:46:01.705Z,29.97
2023-07-02T14:48:28.362Z,30.63
2023-07-02T14:50:57.234Z,31.59
2023-07-02T14:53:24.373Z,32.51
2023-07-02T14:55:51.027Z,32.91
2023-07-02T14:58:18.013Z,34.13
2023-07-02T15:00:45.623Z,35.16
2023-07-02T15:03:13.154Z,36.62
2023-07-02T15:05:40.278Z,37.29
2023-07-02T15:08:08.394Z,36.62
2023-07-02T15:10:35.671Z,35.77
2023-07-02T15:13:02.223Z,34.55
2023-07-02T15:15:28.936Z,35.42
2023-07-02T15:17:57.696Z,35.67
2023-07-02T15:20:25.133Z,35.73
2023-07-02T15:22:51.820Z,36.52
2023-07-02T15:25:18.833Z,36.87
2023-07-02T15:27:45.463Z,36.58
2023-07-02T15:30:12.839Z,36.19
2023-07-02T15:32:39.637Z,36.39
2023-07-02T15:35:06.363Z,36.90
2023-07-02T15:37:34.917Z,37.94
2023-07-02T15:40:01.580Z,38.91
2023-07-02T15:42:30.231Z,39.74
2023-07-02T15:44:57.365Z,38.83
2023-07-02T15:47:24.183Z,39.66
2023-07-02T15:49:51.199Z,40.91
2023-07-02T15:52:17.927Z,41.58
2023-07-02T15:54:44.501Z,42.18
2023-07-02T15:57:11.318Z,41.39
2023-07-02T15:59:40.361Z,41.99
2023-07-02T16:02:07.155Z,41.54
2023-07-02T16:04:33.839Z,41.82
2023-07-02T16:08:22.490Z,48.31
2023-07-02T16:10:49.829Z,46.42
2023-07-02T16:13:17.218Z,45.59
2023-07-02T16:15:44.517Z,43.88
2023-07-02T16:18:11.881Z,43.08
2023-07-02T16:20:39.268Z,40.97
2023-07-02T16:23:08.074Z,40.56
2023-07-02T16:25:35.540Z,39.60
2023-07-02T16:28:04.279Z,37.95
2023-07-02T16:30:34.086Z,36.58
2023-07-02T16:33:01.792Z,35.77
2023-07-02T16:35:29.080Z,35.38
2023-07-02T16:37:56.508Z,35.29
2023-07-02T16:40:23.900Z,34.83
2023-07-02T16:42:51.296Z,34.62
2023-07-02T16:45:18.590Z,34.19
2023-07-02T16:47:47.264Z,33.72
2023-07-02T16:50:14.810Z,33.50
2023-07-02T16:52:42.152Z,33.15
2023-07-02T16:55:09.529Z,33.14
2023-07-02T16:57:36.856Z,33.22
2023-07-02T17:00:05.887Z,33.07
2023-07-02T17:02:33.279Z,33.43
2023-07-02T17:05:00.751Z,33.11
2023-07-02T17:07:28.183Z,32.70
2023-07-02T17:09:56.152Z,32.68
2023-07-02T17:12:23.536Z,32.81
2023-07-02T17:14:51.753Z,32.71
2023-07-02T17:19:34.822Z,32.50
2023-07-02T17:22:03.398Z,32.63
2023-07-02T17:24:33.394Z,32.64
2023-07-02T17:27:00.744Z,32.71
2023-07-02T17:29:30.126Z,33.13
2023-07-02T17:31:58.666Z,33.41
2023-07-02T17:34:27.286Z,33.52
2023-07-02T17:37:05.908Z,33.40
2023-07-02T17:39:34.061Z,33.26
2023-07-02T17:42:01.743Z,33.81
2023-07-02T17:44:33.288Z,34.11
2023-07-02T17:47:05.220Z,34.58
2023-07-02T17:49:33.114Z,34.57
2023-07-02T17:52:00.496Z,34.43
2023-07-02T17:54:29.255Z,34.24
2023-07-02T17:56:56.928Z,34.81
2023-07-02T17:59:26.782Z,35.10
2023-07-02T18:01:55.521Z,34.72
2023-07-02T18:04:24.608Z,35.05
2023-07-02T18:06:58.700Z,35.39
2023-07-02T18:09:26.160Z,36.06
2023-07-02T18:11:57.278Z,36.32
2023-07-02T18:14:27.695Z,35.99
2023-07-02T18:16:55.282Z,35.91
2023-07-02T18:19:26.566Z,36.48
2023-07-02T18:21:55.956Z,37.33
2023-07-02T18:24:23.762Z,37.93
2023-07-02T18:26:52.632Z,38.15
2023-07-02T18:29:20.030Z,37.94
2023-07-02T18:31:47.432Z,37.89
2023-07-02T18:34:16.280Z,38.21
2023-07-02T18:36:49.997Z,38.36
2023-07-02T18:39:18.066Z,39.14
2023-07-02T18:41:48.508Z,38.80
2023-07-02T18:44:15.938Z,38.87
2023-07-02T18:46:43.422Z,39.63
2023-07-02T18:49:11.044Z,39.84
2023-07-02T18:51:39.062Z,40.53
2023-07-02T18:54:06.447Z,40.35
2023-07-02T18:56:34.013Z,39.97
2023-07-02T18:59:03.089Z,40.29
2023-07-02T19:01:30.747Z,40.39
2023-07-02T19:03:59.080Z,40.38
2023-07-02T19:06:26.544Z,40.65
2023-07-02T19:08:53.998Z,41.01
2023-07-02T19:11:21.395Z,42.02
2023-07-02T19:13:48.813Z,43.00
2023-07-02T19:16:16.303Z,44.49
2023-07-02T19:18:43.770Z,44.92
2023-07-02T19:21:14.940Z,44.32
2023-07-02T19:23:42.386Z,44.64
2023-07-02T19:26:09.863Z,44.41
2023-07-02T19:28:37.251Z,44.72
2023-07-02T19:31:05.201Z,44.83
2023-07-02T19:33:32.746Z,44.80
2023-07-02T19:36:06.270Z,44.41
2023-07-02T19:38:33.757Z,44.80
2023-07-02T19:41:01.178Z,45.31
2023-07-02T19:43:28.558Z,45.13
2023-07-02T19:45:58.548Z,45.09
2023-07-02T19:48:26.041Z,45.25
2023-07-02T19:51:01.164Z,45.44
2023-07-02T19:53:28.546Z,44.56
2023-07-02T19:55:56.071Z,44.85
2023-07-02T19:58:23.757Z,45.04
2023-07-02T20:00:51.449Z,45.68
2023-07-02T20:03:23.515Z,45.73
2023-07-02T20:05:52.095Z,45.24
2023-07-02T20:08:20.078Z,44.53
2023-07-02T20:10:47.401Z,45.03
2023-07-02T20:13:14.912Z,45.34
2023-07-02T20:15:42.228Z,45.35
2023-07-02T20:18:09.796Z,45.03
2023-07-02T20:20:37.163Z,44.67
2023-07-02T20:23:04.665Z,44.61
2023-07-02T20:28:08.979Z,43.98
2023-07-02T20:30:36.337Z,44.17
2023-07-02T20:33:03.820Z,44.05
2023-07-02T20:35:31.458Z,44.81
2023-07-02T20:38:01.172Z,45.06
2023-07-02T20:40:28.641Z,45.30
2023-07-02T20:42:58.359Z,45.66
2023-07-02T20:45:31.306Z,45.03
2023-07-02T20:48:04.394Z,45.45
2023-07-02T20:50:31.827Z,45.62
2023-07-02T20:52:59.286Z,45.87
2023-07-02T20:55:26.674Z,46.18
2023-07-02T20:57:53.992Z,46.26
2023-07-02T21:00:21.552Z,45.94
2023-07-02T21:02:49.381Z,46.22
2023-07-02T21:05:17.672Z,45.67
2023-07-02T21:07:45.328Z,46.35
2023-07-02T21:10:12.680Z,46.25
2023-07-02T21:12:40.089Z,46.44
2023-07-02T21:15:08.557Z,46.60
2023-07-02T21:17:35.926Z,46.63
2023-07-02T21:20:03.427Z,46.99
2023-07-02T21:22:30.885Z,47.58
2023-07-02T21:24:58.372Z,47.88
2023-07-02T21:27:25.792Z,47.87
2023-07-02T21:29:55.101Z,47.92
2023-07-02T21:32:23.141Z,48.24
2023-07-02T21:34:55.765Z,48.99
2023-07-02T21:37:23.303Z,49.06
2023-07-02T21:39:50.782Z,48.98
2023-07-02T21:42:18.164Z,49.14
2023-07-02T21:44:45.625Z,48.97
2023-07-02T21:47:13.008Z,48.66
2023-07-02T21:49:40.365Z,48.88
2023-07-02T21:52:08.045Z,48.46
2023-07-02T21:54:35.409Z,48.19
2023-07-02T21:57:02.790Z,48.33
2023-07-02T21:59:33.049Z,48.12
2023-07-02T22:02:00.471Z,47.73
2023-07-02T22:04:30.625Z,47.79
2023-07-02T22:06:58.433Z,47.49
2023-07-02T22:09:26.022Z,47.95
2023-07-02T22:11:53.403Z,47.77
2023-07-02T22:14:20.787Z,47.52
2023-07-02T22:16:48.284Z,48.02
2023-07-02T22:19:15.657Z,48.86
2023-07-02T22:21:45.946Z,49.55
2023-07-02T22:24:14.364Z,50.22
2023-07-02T22:26:41.700Z,50.20
2023-07-02T22:29:09.030Z,49.93
2023-07-02T22:31:36.471Z,49.81
2023-07-02T22:34:03.895Z,49.60
2023-07-02T22:36:31.339Z,49.48
2023-07-02T22:38:58.651Z,49.49
2023-07-02T22:41:25.989Z,48.72
2023-07-02T22:43:53.379Z,49.20
2023-07-02T22:46:20.920Z,49.10
2023-07-02T22:48:48.485Z,49.09
2023-07-02T22:51:16.080Z,48.68
2023-07-02T22:53:43.394Z,48.58
2023-07-02T22:56:16.399Z,48.46
2023-07-02T22:58:43.945Z,48.86
2023-07-02T23:01:11.621Z,48.08
2023-07-02T23:03:39.148Z,48.06
2023-07-02T23:06:06.576Z,48.04
2023-07-02T23:08:33.949Z,48.36
2023-07-02T23:11:01.264Z,48.51
2023-07-02T23:13:28.637Z,48.86
2023-07-02T23:15:56.960Z,48.81
2023-07-02T23:18:24.590Z,47.66
2023-07-02T23:20:54.200Z,47.92
2023-07-02T23:23:21.813Z,48.19
2023-07-02T23:25:49.890Z,48.34
2023-07-02T23:28:17.433Z,48.10
2023-07-02T23:30:44.921Z,48.16
2023-07-02T23:33:13.809Z,47.33
2023-07-02T23:35:41.275Z,47.70
2023-07-02T23:38:08.725Z,47.34
2023-07-02T23:40:36.970Z,47.59
2023-07-02T23:43:04.702Z,47.88
2023-07-02T23:45:32.202Z,47.88
2023-07-02T23:47:59.926Z,48.19
2023-07-02T23:50:27.770Z,48.67
2023-07-02T23:52:55.089Z,48.41
2023-07-02T23:55:22.491Z,48.53
2023-07-02T23:57:50.196Z,48.29
